createdAt,value
2018-05-10T00:02:12.654Z,30.03
2018-05-10T00:04:40.926Z,21.17
2018-05-10T00:07:09.206Z,21.57
2018-05-10T00:09:37.475Z,18.63
2018-05-10T00:12:05.766Z,18.07
2018-05-10T00:14:34.033Z,20.13
2018-05-10T00:17:02.313Z,18.97
2018-05-10T00:19:30.605Z,18.80
2018-05-10T00:21:58.879Z,17.73
2018-05-10T00:24:27.251Z,17.80
2018-05-10T00:26:55.437Z,17.30
2018-05-10T00:29:23.741Z,19.43
2018-05-10T00:31:52.010Z,18.67
2018-05-10T00:34:20.285Z,18.80
2018-05-10T00:36:48.566Z,20.30
2018-05-10T00:39:16.838Z,20.67
2018-05-10T00:41:45.118Z,19.37
2018-05-10T00:44:13.390Z,21.57
2018-05-10T00:46:41.675Z,23.03
2018-05-10T00:49:09.945Z,23.67
2018-05-10T00:51:38.219Z,24.17
2018-05-10T00:54:06.500Z,25.27
2018-05-10T00:56:34.777Z,23.97
2018-05-10T00:59:03.053Z,22.80
2018-05-10T01:01:31.329Z,20.50
2018-05-10T01:03:59.606Z,17.43
2018-05-10T01:06:27.882Z,16.33
2018-05-10T01:08:56.166Z,17.07
2018-05-10T01:11:24.438Z,18.00
2018-05-10T01:13:52.709Z,19.40
2018-05-10T01:16:20.990Z,16.27
2018-05-10T01:18:49.262Z,17.00
2018-05-10T01:21:17.554Z,25.43
2018-05-10T01:23:45.827Z,20.10
2018-05-10T01:26:14.118Z,22.37
2018-05-10T01:28:42.386Z,19.77
2018-05-10T01:31:10.658Z,23.00
2018-05-10T01:33:39.145Z,21.97
2018-05-10T01:36:13.942Z,22.47
2018-05-10T01:38:42.225Z,22.63
2018-05-10T01:41:10.500Z,24.50
2018-05-10T01:43:38.770Z,30.37
2018-05-10T01:46:07.057Z,31.87
2018-05-10T01:48:35.341Z,28.23
2018-05-10T01:51:03.625Z,31.57
2018-05-10T01:53:31.889Z,35.80
2018-05-10T01:56:00.217Z,33.70
2018-05-10T01:58:28.494Z,32.37
2018-05-10T02:00:56.770Z,36.60
2018-05-10T02:03:25.054Z,34.90
2018-05-10T02:05:53.326Z,37.20
2018-05-10T02:08:21.598Z,35.10
2018-05-10T02:10:49.877Z,36.07
2018-05-10T02:13:18.154Z,35.33
2018-05-10T02:15:46.749Z,34.33
2018-05-10T02:18:15.021Z,33.40
2018-05-10T02:20:43.298Z,29.67
2018-05-10T02:23:11.583Z,32.97
2018-05-10T02:25:39.850Z,32.27
2018-05-10T02:28:08.133Z,29.63
2018-05-10T02:30:36.417Z,33.33
2018-05-10T02:33:04.689Z,32.30
2018-05-10T02:35:32.977Z,30.77
2018-05-10T02:38:01.246Z,36.23
2018-05-10T02:40:29.554Z,33.70
2018-05-10T02:42:57.825Z,33.07
2018-05-10T02:45:26.097Z,28.10
2018-05-10T02:47:54.386Z,39.13
2018-05-10T02:50:22.656Z,31.37
2018-05-10T02:52:50.957Z,30.70
2018-05-10T02:55:19.233Z,30.37
2018-05-10T02:57:47.506Z,27.90
2018-05-10T03:00:15.788Z,35.60
2018-05-10T03:02:44.062Z,30.07
2018-05-10T03:05:12.349Z,35.90
2018-05-10T03:07:40.634Z,35.33
2018-05-10T03:10:08.913Z,34.90
2018-05-10T03:12:37.184Z,33.27
2018-05-10T03:15:05.462Z,36.47
2018-05-10T03:17:33.738Z,36.13
2018-05-10T03:20:02.022Z,36.00
2018-05-10T03:22:30.297Z,35.97
2018-05-10T03:24:58.577Z,35.53
2018-05-10T03:27:26.865Z,34.80
2018-05-10T03:29:55.141Z,35.00
2018-05-10T03:32:23.427Z,36.43
2018-05-10T03:34:51.714Z,32.63
2018-05-10T03:37:19.990Z,34.13
2018-05-10T03:39:48.279Z,33.53
2018-05-10T03:42:16.561Z,31.97
2018-05-10T03:44:44.862Z,31.03
2018-05-10T03:47:13.141Z,28.90
2018-05-10T03:49:41.418Z,25.73
2018-05-10T03:52:09.792Z,29.13
2018-05-10T03:54:38.014Z,25.80
2018-05-10T03:57:06.302Z,30.10
2018-05-10T03:59:34.578Z,28.00
2018-05-10T04:02:02.870Z,29.90
2018-05-10T04:04:42.818Z,25.90
2018-05-10T04:07:22.747Z,27.73
2018-05-10T04:10:02.876Z,27.07
2018-05-10T04:12:32.006Z,26.77
2018-05-10T04:15:00.378Z,30.20
2018-05-10T04:17:28.656Z,25.33
2018-05-10T04:19:56.937Z,27.87
2018-05-10T04:22:25.225Z,25.67
2018-05-10T04:24:53.501Z,29.30
2018-05-10T04:27:21.793Z,31.47
2018-05-10T04:29:50.078Z,29.13
2018-05-10T04:32:18.349Z,30.20
2018-05-10T04:34:46.645Z,32.53
2018-05-10T04:37:14.930Z,31.03
2018-05-10T04:39:43.653Z,33.50
2018-05-10T04:42:11.967Z,28.37
2018-05-10T04:44:40.231Z,29.47
2018-05-10T04:47:08.521Z,28.10
2018-05-10T04:49:36.805Z,27.77
2018-05-10T04:52:05.114Z,26.43
2018-05-10T04:54:33.406Z,28.00
2018-05-10T04:57:01.678Z,25.00
2018-05-10T04:59:29.962Z,30.80
2018-05-10T05:01:58.238Z,27.10
2018-05-10T05:04:26.530Z,26.63
2018-05-10T05:06:54.882Z,28.43
2018-05-10T05:09:23.085Z,22.27
2018-05-10T05:11:51.397Z,23.90
2018-05-10T05:14:19.649Z,21.97
2018-05-10T05:16:47.950Z,22.20
2018-05-10T05:19:16.226Z,22.27
2018-05-10T05:21:44.517Z,25.87
2018-05-10T05:24:12.806Z,25.73
2018-05-10T05:26:41.105Z,21.73
2018-05-10T05:29:09.398Z,25.37
2018-05-10T05:31:37.674Z,23.53
2018-05-10T05:34:05.951Z,24.50
2018-05-10T05:36:34.318Z,25.80
2018-05-10T05:39:02.510Z,25.13
2018-05-10T05:41:30.806Z,24.87
2018-05-10T05:43:59.089Z,28.03
2018-05-10T05:46:27.365Z,26.13
2018-05-10T05:48:55.654Z,30.83
2018-05-10T05:51:23.929Z,27.70
2018-05-10T05:53:52.221Z,30.27
2018-05-10T05:56:20.506Z,30.33
2018-05-10T05:58:48.781Z,31.23
2018-05-10T06:01:17.066Z,36.80
2018-05-10T06:03:45.343Z,27.67
2018-05-10T06:06:13.634Z,30.93
2018-05-10T06:08:42.958Z,35.70
2018-05-10T06:11:11.205Z,36.00
2018-05-10T06:13:39.522Z,37.57
2018-05-10T06:16:07.782Z,39.30
2018-05-10T06:18:36.069Z,36.70
2018-05-10T06:21:04.353Z,37.63
2018-05-10T06:23:32.631Z,34.50
2018-05-10T06:26:00.921Z,36.30
2018-05-10T06:28:29.210Z,36.60
2018-05-10T06:30:57.509Z,37.47
2018-05-10T06:33:25.791Z,37.30
2018-05-10T06:35:54.066Z,38.63
2018-05-10T06:38:22.357Z,39.07
2018-05-10T06:40:50.630Z,38.47
2018-05-10T06:43:18.918Z,40.97
2018-05-10T06:45:47.201Z,39.93
2018-05-10T06:48:15.481Z,38.10
2018-05-10T06:50:43.774Z,40.10
2018-05-10T06:53:12.061Z,41.33
2018-05-10T06:55:40.358Z,35.93
2018-05-10T06:58:08.641Z,34.43
2018-05-10T07:00:36.924Z,43.77
2018-05-10T07:03:05.214Z,37.37
2018-05-10T07:05:33.497Z,38.70
2018-05-10T07:08:01.791Z,37.23
2018-05-10T07:10:30.187Z,38.60
2018-05-10T07:12:58.418Z,36.57
2018-05-10T07:15:26.709Z,41.67
2018-05-10T07:17:54.992Z,38.47
2018-05-10T07:20:23.281Z,36.30
2018-05-10T07:22:51.561Z,38.97
2018-05-10T07:25:19.954Z,43.57
2018-05-10T07:27:48.121Z,40.17
2018-05-10T07:30:16.398Z,39.23
2018-05-10T07:32:44.721Z,45.07
2018-05-10T07:35:12.992Z,40.43
2018-05-10T07:37:41.270Z,38.53
2018-05-10T07:40:09.553Z,41.27
2018-05-10T07:42:37.837Z,38.30
2018-05-10T07:45:06.129Z,34.87
2018-05-10T07:47:34.421Z,40.57
2018-05-10T07:50:02.730Z,36.50
2018-05-10T07:52:31.014Z,31.80
2018-05-10T07:54:59.295Z,42.93
2018-05-10T07:57:27.589Z,38.73
2018-05-10T07:59:55.869Z,35.07
2018-05-10T08:02:24.172Z,35.10
2018-05-10T08:04:52.442Z,36.53
2018-05-10T08:07:20.719Z,30.30
2018-05-10T08:09:49.010Z,29.10
2018-05-10T08:12:17.285Z,30.77
2018-05-10T08:14:45.575Z,31.60
2018-05-10T08:17:13.867Z,34.03
2018-05-10T08:19:42.138Z,33.80
2018-05-10T08:22:10.450Z,34.70
2018-05-10T08:24:38.728Z,35.90
2018-05-10T08:27:07.006Z,36.67
2018-05-10T08:29:35.290Z,36.17
2018-05-10T08:32:03.566Z,34.00
2018-05-10T08:34:31.874Z,40.67
2018-05-10T08:37:00.150Z,36.33
2018-05-10T08:39:28.425Z,34.50
2018-05-10T08:41:56.709Z,31.73
2018-05-10T08:44:24.990Z,33.07
2018-05-10T08:46:53.530Z,31.33
2018-05-10T08:49:21.806Z,29.20
2018-05-10T08:51:50.188Z,26.47
2018-05-10T08:54:18.373Z,32.03
2018-05-10T08:56:46.666Z,27.80
2018-05-10T08:59:14.946Z,29.03
2018-05-10T09:01:43.226Z,26.43
2018-05-10T09:04:11.510Z,25.37
2018-05-10T09:06:39.789Z,30.80
2018-05-10T09:09:08.083Z,27.63
2018-05-10T09:11:36.367Z,27.60
2018-05-10T09:14:04.638Z,30.97
2018-05-10T09:16:32.934Z,25.03
2018-05-10T09:19:01.254Z,28.20
2018-05-10T09:21:29.547Z,27.17
2018-05-10T09:23:57.809Z,28.80
2018-05-10T09:26:26.094Z,27.97
2018-05-10T09:28:54.386Z,23.67
2018-05-10T09:31:22.675Z,28.57
2018-05-10T09:33:51.053Z,32.57
2018-05-10T09:36:19.266Z,28.17
2018-05-10T09:38:47.564Z,27.17
2018-05-10T09:41:15.854Z,28.50
2018-05-10T09:43:44.166Z,30.77
2018-05-10T09:46:12.472Z,28.70
2018-05-10T09:48:40.742Z,26.00
2018-05-10T09:51:09.023Z,22.80
2018-05-10T09:53:37.348Z,29.80
2018-05-10T09:56:05.614Z,21.47
2018-05-10T09:58:34.149Z,19.90
2018-05-10T10:01:02.435Z,22.40
2018-05-10T10:03:30.706Z,18.20
2018-05-10T10:05:58.997Z,15.87
2018-05-10T10:08:27.269Z,21.83
2018-05-10T10:10:55.572Z,17.83
2018-05-10T10:13:23.851Z,18.83
2018-05-10T10:15:52.129Z,17.13
2018-05-10T10:18:20.514Z,14.20
2018-05-10T10:20:48.790Z,18.40
2018-05-10T10:23:17.078Z,15.70
2018-05-10T10:25:45.354Z,18.00
2018-05-10T10:28:13.633Z,22.00
2018-05-10T10:30:41.930Z,16.20
2018-05-10T10:33:10.201Z,16.03
2018-05-10T10:35:38.509Z,16.30
2018-05-10T10:38:06.788Z,16.27
2018-05-10T10:40:35.054Z,12.30
2018-05-10T10:43:03.344Z,11.40
2018-05-10T10:45:31.697Z,9.00
2018-05-10T10:47:59.890Z,11.00
2018-05-10T10:50:28.169Z,8.83
2018-05-10T10:52:56.478Z,10.17
2018-05-10T10:55:24.721Z,8.13
2018-05-10T10:57:54.142Z,7.00
2018-05-10T11:00:22.450Z,10.00
2018-05-10T11:02:50.710Z,7.90
2018-05-10T11:05:18.987Z,8.30
2018-05-10T11:07:47.260Z,5.57
2018-05-10T11:10:15.535Z,6.17
2018-05-10T11:12:43.824Z,8.97
2018-05-10T11:15:12.149Z,10.97
2018-05-10T11:17:40.426Z,7.77
2018-05-10T11:20:08.703Z,6.03
2018-05-10T11:22:37.036Z,11.07
2018-05-10T11:25:05.271Z,9.47
2018-05-10T11:27:33.539Z,6.10
2018-05-10T11:30:01.806Z,9.00
2018-05-10T11:32:30.085Z,7.57
2018-05-10T11:34:58.349Z,8.90
2018-05-10T11:37:26.629Z,9.33
2018-05-10T11:39:54.905Z,13.33
2018-05-10T11:42:23.178Z,15.50
2018-05-10T11:44:51.457Z,13.57
2018-05-10T11:47:19.729Z,12.63
2018-05-10T11:49:48.018Z,14.23
2018-05-10T11:52:16.293Z,14.27
2018-05-10T11:54:44.565Z,15.33
2018-05-10T11:57:12.886Z,16.40
2018-05-10T11:59:41.130Z,19.63
2018-05-10T12:02:09.422Z,17.53
2018-05-10T12:04:37.690Z,15.53
2018-05-10T12:07:05.975Z,18.83
2018-05-10T12:09:34.252Z,17.13
2018-05-10T12:12:02.528Z,15.67
2018-05-10T12:14:30.813Z,18.90
2018-05-10T12:16:59.090Z,16.63
2018-05-10T12:19:27.366Z,18.97
2018-05-10T12:21:55.662Z,16.43
2018-05-10T12:24:23.930Z,15.17
2018-05-10T12:26:52.525Z,21.53
2018-05-10T12:29:20.805Z,17.63
2018-05-10T12:31:49.074Z,20.07
2018-05-10T12:34:17.366Z,19.83
2018-05-10T12:36:45.637Z,14.93
2018-05-10T12:39:13.937Z,19.63
2018-05-10T12:41:42.313Z,16.03
2018-05-10T12:44:10.478Z,15.50
2018-05-10T12:46:38.757Z,18.97
2018-05-10T12:49:07.031Z,19.00
2018-05-10T12:51:35.317Z,17.33
2018-05-10T12:54:03.592Z,21.13
2018-05-10T12:56:31.990Z,18.30
2018-05-10T12:59:00.186Z,18.00
2018-05-10T13:01:28.458Z,18.93
2018-05-10T13:03:56.767Z,14.97
2018-05-10T13:06:25.043Z,19.17
2018-05-10T13:08:53.322Z,19.33
2018-05-10T13:11:21.626Z,20.53
2018-05-10T13:13:49.905Z,20.10
2018-05-10T13:16:18.230Z,19.30
2018-05-10T13:18:46.510Z,17.40
2018-05-10T13:21:14.794Z,15.50
2018-05-10T13:23:43.113Z,18.33
2018-05-10T13:26:11.389Z,18.93
2018-05-10T13:28:39.702Z,17.93
2018-05-10T13:31:07.962Z,20.57
2018-05-10T13:33:36.258Z,21.03
2018-05-10T13:36:04.543Z,21.17
2018-05-10T13:38:32.817Z,18.70
2018-05-10T13:41:01.126Z,19.03
2018-05-10T13:43:29.406Z,20.00
2018-05-10T13:45:57.702Z,22.63
2018-05-10T13:48:26.076Z,17.97
2018-05-10T13:50:54.313Z,19.20
2018-05-10T13:53:22.607Z,23.47
2018-05-10T13:55:50.881Z,20.03
2018-05-10T13:58:19.537Z,27.57
2018-05-10T14:00:47.818Z,21.97
2018-05-10T14:03:16.097Z,36.03
2018-05-10T14:05:44.397Z,22.43
2018-05-10T14:08:12.675Z,20.33
2018-05-10T14:13:38.764Z,22.20
2018-05-10T14:16:07.067Z,23.33
2018-05-10T14:18:35.352Z,22.10
2018-05-10T14:21:03.649Z,20.97
2018-05-10T14:23:31.934Z,23.97
2018-05-10T14:26:00.237Z,22.87
2018-05-10T14:28:28.519Z,21.77
2018-05-10T14:30:56.814Z,18.40
2018-05-10T14:33:25.106Z,23.53
2018-05-10T14:35:53.396Z,21.87
2018-05-10T14:38:21.680Z,21.73
2018-05-10T14:40:50.942Z,22.60
2018-05-10T14:43:19.228Z,17.77
2018-05-10T14:45:47.533Z,21.37
2018-05-10T14:48:15.843Z,19.47
2018-05-10T14:50:44.139Z,17.10
2018-05-10T14:53:12.435Z,21.70
2018-05-10T14:55:40.731Z,18.70
2018-05-10T14:58:09.013Z,19.43
2018-05-10T15:00:37.303Z,21.17
2018-05-10T15:03:05.590Z,15.47
2018-05-10T15:05:34.164Z,21.17
2018-05-10T15:08:02.479Z,19.47
2018-05-10T15:10:30.766Z,15.83
2018-05-10T15:12:59.064Z,21.30
2018-05-10T15:15:27.342Z,16.83
2018-05-10T15:17:55.635Z,17.83
2018-05-10T15:20:23.910Z,18.30
2018-05-10T15:22:52.226Z,21.13
2018-05-10T15:25:20.482Z,25.30
2018-05-10T15:27:48.775Z,18.13
2018-05-10T15:30:17.062Z,18.13
2018-05-10T15:32:45.366Z,18.90
2018-05-10T15:35:13.654Z,19.57
2018-05-10T15:37:41.947Z,17.17
2018-05-10T15:40:10.240Z,21.17
2018-05-10T15:42:38.526Z,16.97
2018-05-10T15:45:06.810Z,19.87
2018-05-10T15:47:35.102Z,20.43
2018-05-10T15:50:03.469Z,15.97
2018-05-10T15:52:31.710Z,20.33
2018-05-10T15:55:00.007Z,19.07
2018-05-10T15:57:28.299Z,15.07
2018-05-10T15:59:56.574Z,18.03
2018-05-10T16:02:24.846Z,17.20
2018-05-10T16:04:53.130Z,27.63
2018-05-10T16:07:21.412Z,18.93
2018-05-10T16:09:49.695Z,15.07
2018-05-10T16:12:17.970Z,14.53
2018-05-10T16:14:46.267Z,17.60
2018-05-10T16:17:14.550Z,15.53
2018-05-10T16:19:42.845Z,17.73
2018-05-10T16:22:11.114Z,14.70
2018-05-10T16:24:39.406Z,11.23
2018-05-10T16:27:07.689Z,13.43
2018-05-10T16:29:35.966Z,13.63
2018-05-10T16:32:04.265Z,11.80
2018-05-10T16:34:32.534Z,14.03
2018-05-10T16:37:00.811Z,11.47
2018-05-10T16:39:29.173Z,14.10
2018-05-10T16:41:57.418Z,13.27
2018-05-10T16:44:25.727Z,12.93
2018-05-10T16:46:54.011Z,12.03
2018-05-10T16:49:22.282Z,10.93
2018-05-10T16:51:50.576Z,11.60
2018-05-10T16:54:18.846Z,11.83
2018-05-10T16:56:47.145Z,13.47
2018-05-10T16:59:15.410Z,13.97
2018-05-10T17:01:43.721Z,9.07
2018-05-10T17:04:12.065Z,11.63
2018-05-10T17:06:40.354Z,11.03
2018-05-10T17:09:08.617Z,10.07
2018-05-10T17:11:36.914Z,13.73
2018-05-10T17:14:05.190Z,19.63
2018-05-10T17:16:33.462Z,14.30
2018-05-10T17:19:01.746Z,13.13
2018-05-10T17:21:30.030Z,11.53
2018-05-10T17:23:58.313Z,11.93
2018-05-10T17:26:26.586Z,10.70
2018-05-10T17:28:54.890Z,15.33
2018-05-10T17:31:23.201Z,16.67
2018-05-10T17:33:51.474Z,12.97
2018-05-10T17:36:19.762Z,14.30
2018-05-10T17:38:48.042Z,12.03
2018-05-10T17:41:16.326Z,13.20
2018-05-10T17:43:45.562Z,11.57
2018-05-10T17:46:13.834Z,13.43
2018-05-10T17:48:42.121Z,10.60
2018-05-10T17:51:10.399Z,12.00
2018-05-10T17:53:38.670Z,13.70
2018-05-10T17:56:06.955Z,12.60
2018-05-10T17:58:35.235Z,11.57
2018-05-10T18:01:03.520Z,12.97
2018-05-10T18:03:31.795Z,12.47
2018-05-10T18:06:00.083Z,11.23
2018-05-10T18:08:28.361Z,11.63
2018-05-10T18:10:56.653Z,14.60
2018-05-10T18:13:24.930Z,11.43
2018-05-10T18:15:53.206Z,9.83
2018-05-10T18:18:21.487Z,10.47
2018-05-10T18:20:49.754Z,8.80
2018-05-10T18:23:18.093Z,9.67
2018-05-10T18:25:46.308Z,12.97
2018-05-10T18:28:14.598Z,13.90
2018-05-10T18:30:42.902Z,11.20
2018-05-10T18:33:11.200Z,11.87
2018-05-10T18:35:39.462Z,10.00
2018-05-10T18:38:07.872Z,11.50
2018-05-10T18:40:36.150Z,10.30
2018-05-10T18:43:04.431Z,11.33
2018-05-10T18:45:32.707Z,9.97
2018-05-10T18:48:00.982Z,11.67
2018-05-10T18:50:29.279Z,12.30
2018-05-10T18:52:57.577Z,13.03
2018-05-10T18:55:25.854Z,9.10
2018-05-10T18:57:54.127Z,7.63
2018-05-10T19:00:22.431Z,8.97
2018-05-10T19:02:50.694Z,8.70
2018-05-10T19:05:19.007Z,9.00
2018-05-10T19:07:47.283Z,11.40
2018-05-10T19:10:15.577Z,8.57
2018-05-10T19:12:43.857Z,9.63
2018-05-10T19:15:12.154Z,9.13
2018-05-10T19:17:40.425Z,8.93
2018-05-10T19:20:08.707Z,10.27
2018-05-10T19:22:36.989Z,7.67
2018-05-10T19:25:05.288Z,13.03
2018-05-10T19:27:33.581Z,11.97
2018-05-10T19:30:01.853Z,10.73
2018-05-10T19:32:30.134Z,8.40
2018-05-10T19:34:58.408Z,8.93
2018-05-10T19:37:26.682Z,8.03
2018-05-10T19:39:54.960Z,9.63
2018-05-10T19:42:23.238Z,13.30
2018-05-10T19:44:51.537Z,10.17
2018-05-10T19:47:19.819Z,11.77
2018-05-10T19:49:48.098Z,6.03
2018-05-10T19:52:16.368Z,9.43
2018-05-10T19:54:44.650Z,11.33
2018-05-10T19:57:12.926Z,5.60
2018-05-10T19:59:41.211Z,13.63
2018-05-10T20:02:09.509Z,17.37
2018-05-10T20:04:37.787Z,15.90
2018-05-10T20:07:10.710Z,10.53
2018-05-10T20:09:39.009Z,12.00
2018-05-10T20:12:07.294Z,12.37
2018-05-10T20:14:35.570Z,11.57
2018-05-10T20:17:03.951Z,12.67
2018-05-10T20:19:32.138Z,10.57
2018-05-10T20:22:00.414Z,7.43
2018-05-10T20:24:30.678Z,10.53
2018-05-10T20:26:58.967Z,8.10
2018-05-10T20:29:27.238Z,7.33
2018-05-10T20:31:55.530Z,9.20
2018-05-10T20:34:23.829Z,10.10
2018-05-10T20:36:52.149Z,8.90
2018-05-10T20:39:20.423Z,10.23
2018-05-10T20:41:48.866Z,8.97
2018-05-10T20:44:17.153Z,12.37
2018-05-10T20:46:45.435Z,12.20
2018-05-10T20:49:13.719Z,8.63
2018-05-10T20:51:42.896Z,11.97
2018-05-10T20:54:12.150Z,11.67
2018-05-10T20:56:40.647Z,6.97
2018-05-10T20:59:08.940Z,10.77
2018-05-10T21:01:37.409Z,8.37
2018-05-10T21:04:05.698Z,10.43
2018-05-10T21:06:33.970Z,9.43
2018-05-10T21:09:02.379Z,8.13
2018-05-10T21:11:30.647Z,7.90
2018-05-10T21:13:58.909Z,8.10
2018-05-10T21:16:27.437Z,9.13
2018-05-10T21:18:55.614Z,6.97
2018-05-10T21:21:23.970Z,5.80
2018-05-10T21:23:52.246Z,6.30
2018-05-10T21:26:20.526Z,8.57
2018-05-10T21:28:48.798Z,9.47
2018-05-10T21:31:17.077Z,6.37
2018-05-10T21:33:45.350Z,10.33
2018-05-10T21:36:13.638Z,4.67
2018-05-10T21:38:41.894Z,6.83
2018-05-10T21:41:10.178Z,6.67
2018-05-10T21:43:38.454Z,6.77
2018-05-10T21:46:06.718Z,7.03
2018-05-10T21:48:35.002Z,3.83
2018-05-10T21:51:03.270Z,6.03
2018-05-10T21:53:31.641Z,7.53
2018-05-10T21:55:59.899Z,3.53
2018-05-10T21:58:28.195Z,5.60
2018-05-10T22:00:56.490Z,5.90
2018-05-10T22:03:24.766Z,5.13
2018-05-10T22:05:53.661Z,9.53
2018-05-10T22:08:21.918Z,6.53
2018-05-10T22:10:50.190Z,10.47
2018-05-10T22:13:18.460Z,6.60
2018-05-10T22:15:46.907Z,7.67
2018-05-10T22:18:15.163Z,7.83
2018-05-10T22:20:43.453Z,10.37
2018-05-10T22:23:11.731Z,5.97
2018-05-10T22:25:40.007Z,6.67
2018-05-10T22:28:08.275Z,9.03
2018-05-10T22:30:36.555Z,7.00
2018-05-10T22:33:04.826Z,6.47
2018-05-10T22:35:33.150Z,6.87
2018-05-10T22:38:01.398Z,9.53
2018-05-10T22:40:29.675Z,9.03
2018-05-10T22:42:57.955Z,7.83
2018-05-10T22:45:26.222Z,8.43
2018-05-10T22:47:54.537Z,5.50
2018-05-10T22:50:22.774Z,9.93
2018-05-10T22:52:51.050Z,8.10
2018-05-10T22:55:19.317Z,6.50
2018-05-10T22:57:47.598Z,8.00
2018-05-10T23:00:15.867Z,8.10
2018-05-10T23:02:44.149Z,5.60
2018-05-10T23:05:12.429Z,7.50
2018-05-10T23:07:40.702Z,8.57
2018-05-10T23:10:08.982Z,6.90
2018-05-10T23:12:37.258Z,6.27
2018-05-10T23:15:05.533Z,5.07
2018-05-10T23:17:33.805Z,7.70
2018-05-10T23:20:02.090Z,7.37
2018-05-10T23:22:30.355Z,8.23
2018-05-10T23:24:58.638Z,6.80
2018-05-10T23:27:26.909Z,10.63
2018-05-10T23:29:55.199Z,7.63
2018-05-10T23:32:23.466Z,7.17
2018-05-10T23:34:51.746Z,7.57
2018-05-10T23:37:20.018Z,7.60
2018-05-10T23:39:48.294Z,8.30
2018-05-10T23:42:16.569Z,7.53
2018-05-10T23:44:44.838Z,9.77
2018-05-10T23:47:13.118Z,9.37
2018-05-10T23:49:41.390Z,9.37
2018-05-10T23:52:09.671Z,7.87
2018-05-10T23:54:37.950Z,10.27
2018-05-10T23:57:06.238Z,7.50
2018-05-10T23:59:34.518Z,10.40
